Terminal Aerodrome Forecast
Issued by NWS Shreveport, LA

Home | Current Version | Previous Version | Text Only | Print | Product List | Glossary On
Versions: 1 2 3 4 5 6 7 8 9 10 11 12
000
FTUS44 KSHV 021144
TAFTXK
TAF
KTXK 021144Z 0212/0312 22003KT P6SM SCT250
     FM021800 16006KT P6SM SCT050 BKN150 BKN250
     FM030000 15004KT P6SM SCT050 SCT150
     FM030300 15004KT P6SM SCT150=

USA.gov is the U.S. government's official web portal to all federal, state and local government web resources and services.